sensor_id;sensor_type;location;lat;lon;timestamp;P1;durP1;ratioP1;P2;durP2;ratioP2
21905;SDS011;11117;48.644;9.006;2024-02-15T00:01:45;4.17;;;2.00;;
21905;SDS011;11117;48.644;9.006;2024-02-15T00:04:10;4.53;;;2.47;;
21905;SDS011;11117;48.644;9.006;2024-02-15T00:06:36;4.60;;;2.40;;
21905;SDS011;11117;48.644;9.006;2024-02-15T00:09:02;5.00;;;2.47;;
21905;SDS011;11117;48.644;9.006;2024-02-15T00:11:27;6.63;;;2.47;;
21905;SDS011;11117;48.644;9.006;2024-02-15T00:13:53;4.13;;;2.30;;
21905;SDS011;11117;48.644;9.006;2024-02-15T00:16:18;4.60;;;2.30;;
21905;SDS011;11117;48.644;9.006;2024-02-15T00:18:44;3.37;;;2.10;;
21905;SDS011;11117;48.644;9.006;2024-02-15T00:21:10;6.70;;;2.90;;
21905;SDS011;11117;48.644;9.006;2024-02-15T00:23:35;4.97;;;2.37;;
21905;SDS011;11117;48.644;9.006;2024-02-15T00:26:03;4.60;;;2.30;;
21905;SDS011;11117;48.644;9.006;2024-02-15T00:28:29;6.33;;;2.40;;
21905;SDS011;11117;48.644;9.006;2024-02-15T00:30:54;4.13;;;2.23;;
21905;SDS011;11117;48.644;9.006;2024-02-15T00:33:20;6.37;;;2.40;;
21905;SDS011;11117;48.644;9.006;2024-02-15T00:35:45;3.13;;;2.10;;
21905;SDS011;11117;48.644;9.006;2024-02-15T00:38:11;3.03;;;2.00;;
21905;SDS011;11117;48.644;9.006;2024-02-15T00:40:37;3.90;;;2.10;;
21905;SDS011;11117;48.644;9.006;2024-02-15T00:43:02;4.67;;;2.50;;
21905;SDS011;11117;48.644;9.006;2024-02-15T00:45:28;3.63;;;1.90;;
21905;SDS011;11117;48.644;9.006;2024-02-15T00:47:53;8.93;;;2.00;;
21905;SDS011;11117;48.644;9.006;2024-02-15T00:50:19;3.90;;;1.90;;
21905;SDS011;11117;48.644;9.006;2024-02-15T00:52:45;6.10;;;2.13;;
21905;SDS011;11117;48.644;9.006;2024-02-15T00:55:10;3.67;;;1.83;;
21905;SDS011;11117;48.644;9.006;2024-02-15T00:57:36;6.23;;;1.80;;
21905;SDS011;11117;48.644;9.006;2024-02-15T01:00:01;4.70;;;2.20;;
21905;SDS011;11117;48.644;9.006;2024-02-15T01:02:27;4.90;;;1.97;;
21905;SDS011;11117;48.644;9.006;2024-02-15T01:04:53;3.93;;;1.83;;
21905;SDS011;11117;48.644;9.006;2024-02-15T01:07:19;6.60;;;2.17;;
21905;SDS011;11117;48.644;9.006;2024-02-15T01:09:44;4.87;;;1.90;;
21905;SDS011;11117;48.644;9.006;2024-02-15T01:12:10;3.03;;;2.13;;
21905;SDS011;11117;48.644;9.006;2024-02-15T01:14:35;5.27;;;2.30;;
21905;SDS011;11117;48.644;9.006;2024-02-15T01:17:01;4.50;;;1.80;;
21905;SDS011;11117;48.644;9.006;2024-02-15T01:19:27;3.10;;;2.00;;
21905;SDS011;11117;48.644;9.006;2024-02-15T01:21:52;5.87;;;1.97;;
21905;SDS011;11117;48.644;9.006;2024-02-15T01:24:18;4.87;;;2.10;;
21905;SDS011;11117;48.644;9.006;2024-02-15T01:26:44;2.83;;;1.70;;
21905;SDS011;11117;48.644;9.006;2024-02-15T01:29:09;3.97;;;1.90;;
21905;SDS011;11117;48.644;9.006;2024-02-15T01:31:35;5.00;;;2.00;;
21905;SDS011;11117;48.644;9.006;2024-02-15T01:34:00;6.33;;;2.00;;
21905;SDS011;11117;48.644;9.006;2024-02-15T01:36:26;5.60;;;2.17;;
21905;SDS011;11117;48.644;9.006;2024-02-15T01:38:51;3.93;;;1.90;;
21905;SDS011;11117;48.644;9.006;2024-02-15T01:41:17;4.13;;;2.10;;
21905;SDS011;11117;48.644;9.006;2024-02-15T01:43:43;5.30;;;1.93;;
21905;SDS011;11117;48.644;9.006;2024-02-15T01:46:09;4.83;;;1.87;;
21905;SDS011;11117;48.644;9.006;2024-02-15T01:48:39;2.83;;;1.90;;
21905;SDS011;11117;48.644;9.006;2024-02-15T01:51:06;4.43;;;2.07;;
21905;SDS011;11117;48.644;9.006;2024-02-15T01:53:32;3.83;;;2.17;;
21905;SDS011;11117;48.644;9.006;2024-02-15T01:56:02;5.40;;;2.17;;
21905;SDS011;11117;48.644;9.006;2024-02-15T01:58:28;3.93;;;2.03;;
21905;SDS011;11117;48.644;9.006;2024-02-15T02:00:54;4.80;;;2.10;;
21905;SDS011;11117;48.644;9.006;2024-02-15T02:03:21;4.57;;;2.47;;
21905;SDS011;11117;48.644;9.006;2024-02-15T02:05:47;6.10;;;2.50;;
21905;SDS011;11117;48.644;9.006;2024-02-15T02:08:13;5.00;;;2.20;;
21905;SDS011;11117;48.644;9.006;2024-02-15T02:10:38;8.50;;;2.70;;
21905;SDS011;11117;48.644;9.006;2024-02-15T02:13:05;6.33;;;2.47;;
21905;SDS011;11117;48.644;9.006;2024-02-15T02:15:31;4.97;;;2.70;;
21905;SDS011;11117;48.644;9.006;2024-02-15T02:18:00;5.30;;;2.63;;
21905;SDS011;11117;48.644;9.006;2024-02-15T02:20:26;4.90;;;2.47;;
21905;SDS011;11117;48.644;9.006;2024-02-15T02:22:53;7.97;;;3.10;;
21905;SDS011;11117;48.644;9.006;2024-02-15T02:25:19;4.87;;;3.00;;
21905;SDS011;11117;48.644;9.006;2024-02-15T02:27:45;5.27;;;2.87;;
21905;SDS011;11117;48.644;9.006;2024-02-15T02:30:12;6.57;;;3.07;;
21905;SDS011;11117;48.644;9.006;2024-02-15T02:32:39;7.00;;;3.60;;
21905;SDS011;11117;48.644;9.006;2024-02-15T02:35:05;8.77;;;3.90;;
21905;SDS011;11117;48.644;9.006;2024-02-15T02:37:31;6.37;;;3.50;;
21905;SDS011;11117;48.644;9.006;2024-02-15T02:39:56;10.37;;;4.33;;
21905;SDS011;11117;48.644;9.006;2024-02-15T02:42:22;7.70;;;3.50;;
21905;SDS011;11117;48.644;9.006;2024-02-15T02:44:48;6.17;;;3.40;;
21905;SDS011;11117;48.644;9.006;2024-02-15T02:47:13;8.00;;;3.53;;
21905;SDS011;11117;48.644;9.006;2024-02-15T02:49:39;5.97;;;3.33;;
21905;SDS011;11117;48.644;9.006;2024-02-15T02:52:04;6.13;;;3.50;;
21905;SDS011;11117;48.644;9.006;2024-02-15T02:54:30;7.37;;;3.00;;
21905;SDS011;11117;48.644;9.006;2024-02-15T02:56:56;7.00;;;3.13;;
21905;SDS011;11117;48.644;9.006;2024-02-15T02:59:21;5.20;;;3.27;;
21905;SDS011;11117;48.644;9.006;2024-02-15T03:01:47;5.60;;;3.33;;
21905;SDS011;11117;48.644;9.006;2024-02-15T03:04:16;7.90;;;3.57;;
21905;SDS011;11117;48.644;9.006;2024-02-15T03:06:41;5.57;;;3.60;;
21905;SDS011;11117;48.644;9.006;2024-02-15T03:09:07;5.27;;;3.27;;
21905;SDS011;11117;48.644;9.006;2024-02-15T03:11:33;6.70;;;3.30;;
21905;SDS011;11117;48.644;9.006;2024-02-15T03:13:58;6.33;;;3.50;;
21905;SDS011;11117;48.644;9.006;2024-02-15T03:16:24;9.13;;;3.50;;
21905;SDS011;11117;48.644;9.006;2024-02-15T03:18:50;6.33;;;3.57;;
21905;SDS011;11117;48.644;9.006;2024-02-15T03:21:16;8.00;;;3.63;;
21905;SDS011;11117;48.644;9.006;2024-02-15T03:23:42;7.80;;;3.40;;
21905;SDS011;11117;48.644;9.006;2024-02-15T03:26:07;6.90;;;3.70;;
21905;SDS011;11117;48.644;9.006;2024-02-15T03:28:33;6.53;;;3.43;;
21905;SDS011;11117;48.644;9.006;2024-02-15T03:31:02;7.00;;;3.30;;
21905;SDS011;11117;48.644;9.006;2024-02-15T03:33:27;8.63;;;3.43;;
21905;SDS011;11117;48.644;9.006;2024-02-15T03:35:53;10.50;;;3.73;;
21905;SDS011;11117;48.644;9.006;2024-02-15T03:38:19;7.13;;;3.77;;
21905;SDS011;11117;48.644;9.006;2024-02-15T03:40:44;6.83;;;3.33;;
21905;SDS011;11117;48.644;9.006;2024-02-15T03:43:10;8.47;;;3.90;;
21905;SDS011;11117;48.644;9.006;2024-02-15T03:45:35;9.97;;;4.20;;
21905;SDS011;11117;48.644;9.006;2024-02-15T03:48:01;6.80;;;3.70;;
21905;SDS011;11117;48.644;9.006;2024-02-15T03:50:26;7.63;;;3.63;;
21905;SDS011;11117;48.644;9.006;2024-02-15T03:52:52;8.17;;;4.13;;
21905;SDS011;11117;48.644;9.006;2024-02-15T03:55:18;6.87;;;3.57;;
21905;SDS011;11117;48.644;9.006;2024-02-15T03:57:43;5.40;;;3.40;;
21905;SDS011;11117;48.644;9.006;2024-02-15T04:00:09;7.37;;;3.47;;
21905;SDS011;11117;48.644;9.006;2024-02-15T04:02:35;5.87;;;3.00;;
21905;SDS011;11117;48.644;9.006;2024-02-15T04:05:01;6.97;;;3.50;;
21905;SDS011;11117;48.644;9.006;2024-02-15T04:07:26;5.53;;;3.07;;
21905;SDS011;11117;48.644;9.006;2024-02-15T04:09:55;4.03;;;3.33;;
21905;SDS011;11117;48.644;9.006;2024-02-15T04:12:20;5.43;;;3.27;;
21905;SDS011;11117;48.644;9.006;2024-02-15T04:14:46;7.20;;;3.23;;
21905;SDS011;11117;48.644;9.006;2024-02-15T04:17:12;5.90;;;3.43;;
21905;SDS011;11117;48.644;9.006;2024-02-15T04:19:38;7.17;;;3.87;;
21905;SDS011;11117;48.644;9.006;2024-02-15T04:22:04;6.63;;;3.40;;
21905;SDS011;11117;48.644;9.006;2024-02-15T04:24:30;7.30;;;3.83;;
21905;SDS011;11117;48.644;9.006;2024-02-15T04:26:55;6.67;;;3.10;;
21905;SDS011;11117;48.644;9.006;2024-02-15T04:29:21;5.90;;;3.20;;
21905;SDS011;11117;48.644;9.006;2024-02-15T04:31:46;4.80;;;3.37;;
21905;SDS011;11117;48.644;9.006;2024-02-15T04:34:12;5.20;;;3.20;;
21905;SDS011;11117;48.644;9.006;2024-02-15T04:36:38;6.57;;;3.30;;
21905;SDS011;11117;48.644;9.006;2024-02-15T04:39:04;6.60;;;3.23;;
21905;SDS011;11117;48.644;9.006;2024-02-15T04:41:29;6.50;;;3.37;;
21905;SDS011;11117;48.644;9.006;2024-02-15T04:43:55;5.50;;;3.43;;
21905;SDS011;11117;48.644;9.006;2024-02-15T04:46:21;4.13;;;2.67;;
21905;SDS011;11117;48.644;9.006;2024-02-15T04:48:47;7.20;;;3.07;;
21905;SDS011;11117;48.644;9.006;2024-02-15T04:51:13;5.60;;;2.83;;
21905;SDS011;11117;48.644;9.006;2024-02-15T04:53:39;9.93;;;3.40;;
21905;SDS011;11117;48.644;9.006;2024-02-15T04:56:05;5.50;;;3.23;;
21905;SDS011;11117;48.644;9.006;2024-02-15T04:58:30;6.60;;;3.17;;
21905;SDS011;11117;48.644;9.006;2024-02-15T05:01:01;7.23;;;4.00;;
21905;SDS011;11117;48.644;9.006;2024-02-15T05:03:27;6.37;;;3.23;;
21905;SDS011;11117;48.644;9.006;2024-02-15T05:05:53;7.07;;;4.13;;
21905;SDS011;11117;48.644;9.006;2024-02-15T05:08:18;6.53;;;3.90;;
21905;SDS011;11117;48.644;9.006;2024-02-15T05:10:44;6.47;;;4.00;;
21905;SDS011;11117;48.644;9.006;2024-02-15T05:13:09;7.50;;;4.43;;
21905;SDS011;11117;48.644;9.006;2024-02-15T05:15:35;8.43;;;5.47;;
21905;SDS011;11117;48.644;9.006;2024-02-15T05:18:00;9.77;;;5.87;;
21905;SDS011;11117;48.644;9.006;2024-02-15T05:20:26;6.20;;;4.47;;
21905;SDS011;11117;48.644;9.006;2024-02-15T05:22:51;7.60;;;4.53;;
21905;SDS011;11117;48.644;9.006;2024-02-15T05:25:18;8.23;;;5.90;;
21905;SDS011;11117;48.644;9.006;2024-02-15T05:27:46;8.33;;;4.07;;
21905;SDS011;11117;48.644;9.006;2024-02-15T05:30:12;8.53;;;4.30;;
21905;SDS011;11117;48.644;9.006;2024-02-15T05:32:38;9.03;;;4.10;;
21905;SDS011;11117;48.644;9.006;2024-02-15T05:35:03;7.37;;;3.87;;
21905;SDS011;11117;48.644;9.006;2024-02-15T05:37:29;7.00;;;4.13;;
21905;SDS011;11117;48.644;9.006;2024-02-15T05:39:55;5.73;;;3.80;;
21905;SDS011;11117;48.644;9.006;2024-02-15T05:42:20;7.17;;;4.50;;
21905;SDS011;11117;48.644;9.006;2024-02-15T05:44:46;10.70;;;4.43;;
21905;SDS011;11117;48.644;9.006;2024-02-15T05:47:11;6.73;;;4.13;;
21905;SDS011;11117;48.644;9.006;2024-02-15T05:49:37;7.50;;;4.30;;
21905;SDS011;11117;48.644;9.006;2024-02-15T05:52:03;10.70;;;6.13;;
21905;SDS011;11117;48.644;9.006;2024-02-15T05:54:28;7.83;;;5.70;;
21905;SDS011;11117;48.644;9.006;2024-02-15T05:56:54;9.80;;;5.23;;
21905;SDS011;11117;48.644;9.006;2024-02-15T05:59:20;11.70;;;4.73;;
21905;SDS011;11117;48.644;9.006;2024-02-15T06:01:46;10.50;;;5.13;;
21905;SDS011;11117;48.644;9.006;2024-02-15T06:04:11;8.53;;;5.17;;
21905;SDS011;11117;48.644;9.006;2024-02-15T06:06:37;10.10;;;4.90;;
21905;SDS011;11117;48.644;9.006;2024-02-15T06:09:03;11.07;;;5.00;;
21905;SDS011;11117;48.644;9.006;2024-02-15T06:11:28;11.20;;;6.10;;
21905;SDS011;11117;48.644;9.006;2024-02-15T06:13:54;9.40;;;5.70;;
21905;SDS011;11117;48.644;9.006;2024-02-15T06:16:20;10.23;;;4.83;;
21905;SDS011;11117;48.644;9.006;2024-02-15T06:18:46;9.40;;;4.73;;
21905;SDS011;11117;48.644;9.006;2024-02-15T06:21:11;9.27;;;5.30;;
21905;SDS011;11117;48.644;9.006;2024-02-15T06:23:37;10.43;;;5.23;;
21905;SDS011;11117;48.644;9.006;2024-02-15T06:26:03;11.90;;;4.73;;
21905;SDS011;11117;48.644;9.006;2024-02-15T06:28:29;6.43;;;4.70;;
21905;SDS011;11117;48.644;9.006;2024-02-15T06:30:54;11.97;;;5.30;;
21905;SDS011;11117;48.644;9.006;2024-02-15T06:33:20;10.83;;;5.43;;
21905;SDS011;11117;48.644;9.006;2024-02-15T06:35:45;10.90;;;5.63;;
21905;SDS011;11117;48.644;9.006;2024-02-15T06:38:13;6.97;;;5.33;;
21905;SDS011;11117;48.644;9.006;2024-02-15T06:40:39;9.80;;;5.30;;
21905;SDS011;11117;48.644;9.006;2024-02-15T06:43:05;10.30;;;5.77;;
21905;SDS011;11117;48.644;9.006;2024-02-15T06:45:30;9.73;;;5.67;;
21905;SDS011;11117;48.644;9.006;2024-02-15T06:47:56;10.43;;;5.40;;
21905;SDS011;11117;48.644;9.006;2024-02-15T06:50:21;7.97;;;5.03;;
21905;SDS011;11117;48.644;9.006;2024-02-15T06:52:47;11.67;;;5.20;;
21905;SDS011;11117;48.644;9.006;2024-02-15T06:55:12;9.50;;;4.83;;
21905;SDS011;11117;48.644;9.006;2024-02-15T06:57:38;11.53;;;5.53;;
21905;SDS011;11117;48.644;9.006;2024-02-15T07:00:04;8.97;;;5.30;;
21905;SDS011;11117;48.644;9.006;2024-02-15T07:02:30;10.23;;;5.10;;
21905;SDS011;11117;48.644;9.006;2024-02-15T07:04:55;8.57;;;4.80;;
21905;SDS011;11117;48.644;9.006;2024-02-15T07:07:21;11.47;;;4.73;;
21905;SDS011;11117;48.644;9.006;2024-02-15T07:09:46;8.53;;;4.73;;
21905;SDS011;11117;48.644;9.006;2024-02-15T07:12:12;10.40;;;4.77;;
21905;SDS011;11117;48.644;9.006;2024-02-15T07:14:37;9.20;;;4.63;;
21905;SDS011;11117;48.644;9.006;2024-02-15T07:17:03;9.40;;;4.73;;
21905;SDS011;11117;48.644;9.006;2024-02-15T07:19:28;8.03;;;4.80;;
21905;SDS011;11117;48.644;9.006;2024-02-15T07:21:54;6.17;;;4.47;;
21905;SDS011;11117;48.644;9.006;2024-02-15T07:24:20;7.17;;;4.50;;
21905;SDS011;11117;48.644;9.006;2024-02-15T07:26:45;8.57;;;4.90;;
21905;SDS011;11117;48.644;9.006;2024-02-15T07:29:11;13.27;;;5.07;;
21905;SDS011;11117;48.644;9.006;2024-02-15T07:31:36;11.27;;;5.20;;
21905;SDS011;11117;48.644;9.006;2024-02-15T07:34:02;10.93;;;4.70;;
21905;SDS011;11117;48.644;9.006;2024-02-15T07:36:27;12.73;;;5.20;;
21905;SDS011;11117;48.644;9.006;2024-02-15T07:38:53;10.83;;;5.10;;
21905;SDS011;11117;48.644;9.006;2024-02-15T07:41:22;8.77;;;4.73;;
21905;SDS011;11117;48.644;9.006;2024-02-15T07:43:48;9.20;;;4.80;;
21905;SDS011;11117;48.644;9.006;2024-02-15T07:46:14;9.13;;;5.37;;
21905;SDS011;11117;48.644;9.006;2024-02-15T07:48:40;10.23;;;6.37;;
21905;SDS011;11117;48.644;9.006;2024-02-15T07:51:06;11.87;;;5.70;;
21905;SDS011;11117;48.644;9.006;2024-02-15T07:53:31;9.93;;;5.40;;
21905;SDS011;11117;48.644;9.006;2024-02-15T07:56:01;11.57;;;5.67;;
21905;SDS011;11117;48.644;9.006;2024-02-15T07:58:26;9.37;;;4.67;;
21905;SDS011;11117;48.644;9.006;2024-02-15T08:00:52;12.30;;;5.17;;
21905;SDS011;11117;48.644;9.006;2024-02-15T08:03:18;9.90;;;5.27;;
21905;SDS011;11117;48.644;9.006;2024-02-15T08:05:43;17.13;;;6.47;;
21905;SDS011;11117;48.644;9.006;2024-02-15T08:08:09;15.23;;;6.77;;
21905;SDS011;11117;48.644;9.006;2024-02-15T08:10:34;18.10;;;6.13;;
21905;SDS011;11117;48.644;9.006;2024-02-15T08:13:00;11.63;;;6.20;;
21905;SDS011;11117;48.644;9.006;2024-02-15T08:15:25;9.50;;;5.20;;
21905;SDS011;11117;48.644;9.006;2024-02-15T08:17:51;8.83;;;4.57;;
21905;SDS011;11117;48.644;9.006;2024-02-15T08:20:16;8.33;;;4.17;;
21905;SDS011;11117;48.644;9.006;2024-02-15T08:22:42;10.07;;;4.30;;
21905;SDS011;11117;48.644;9.006;2024-02-15T08:25:12;7.57;;;4.57;;
21905;SDS011;11117;48.644;9.006;2024-02-15T08:27:42;11.43;;;4.70;;
21905;SDS011;11117;48.644;9.006;2024-02-15T08:30:08;8.07;;;4.30;;
21905;SDS011;11117;48.644;9.006;2024-02-15T08:32:38;9.10;;;5.20;;
21905;SDS011;11117;48.644;9.006;2024-02-15T08:35:06;9.93;;;4.47;;
21905;SDS011;11117;48.644;9.006;2024-02-15T08:37:32;11.07;;;4.13;;
21905;SDS011;11117;48.644;9.006;2024-02-15T08:39:57;11.90;;;4.80;;
21905;SDS011;11117;48.644;9.006;2024-02-15T08:42:23;8.27;;;4.13;;
21905;SDS011;11117;48.644;9.006;2024-02-15T08:44:48;8.43;;;4.57;;
21905;SDS011;11117;48.644;9.006;2024-02-15T08:47:14;12.40;;;5.03;;
21905;SDS011;11117;48.644;9.006;2024-02-15T08:49:39;8.53;;;4.10;;
21905;SDS011;11117;48.644;9.006;2024-02-15T08:52:05;9.03;;;4.27;;
21905;SDS011;11117;48.644;9.006;2024-02-15T08:54:31;8.10;;;3.93;;
21905;SDS011;11117;48.644;9.006;2024-02-15T08:56:56;7.37;;;3.90;;
21905;SDS011;11117;48.644;9.006;2024-02-15T08:59:22;7.33;;;3.07;;
21905;SDS011;11117;48.644;9.006;2024-02-15T09:01:49;5.10;;;2.90;;
21905;SDS011;11117;48.644;9.006;2024-02-15T09:04:15;7.60;;;3.03;;
21905;SDS011;11117;48.644;9.006;2024-02-15T09:06:41;6.77;;;2.80;;
21905;SDS011;11117;48.644;9.006;2024-02-15T09:09:07;7.90;;;3.40;;
21905;SDS011;11117;48.644;9.006;2024-02-15T09:11:32;5.00;;;2.67;;
21905;SDS011;11117;48.644;9.006;2024-02-15T09:13:58;10.57;;;2.80;;
21905;SDS011;11117;48.644;9.006;2024-02-15T09:16:23;10.70;;;5.10;;
21905;SDS011;11117;48.644;9.006;2024-02-15T09:18:49;9.03;;;5.33;;
21905;SDS011;11117;48.644;9.006;2024-02-15T09:21:14;9.23;;;4.30;;
21905;SDS011;11117;48.644;9.006;2024-02-15T09:23:40;6.73;;;3.77;;
21905;SDS011;11117;48.644;9.006;2024-02-15T09:26:06;3.83;;;2.80;;
21905;SDS011;11117;48.644;9.006;2024-02-15T09:28:31;4.63;;;3.03;;
21905;SDS011;11117;48.644;9.006;2024-02-15T09:31:01;5.80;;;2.57;;
21905;SDS011;11117;48.644;9.006;2024-02-15T09:33:27;5.37;;;2.57;;
21905;SDS011;11117;48.644;9.006;2024-02-15T09:35:52;5.63;;;2.77;;
21905;SDS011;11117;48.644;9.006;2024-02-15T09:38:18;5.73;;;2.50;;
21905;SDS011;11117;48.644;9.006;2024-02-15T09:40:44;5.43;;;2.77;;
21905;SDS011;11117;48.644;9.006;2024-02-15T09:43:09;5.27;;;2.20;;
21905;SDS011;11117;48.644;9.006;2024-02-15T09:45:35;6.73;;;2.53;;
21905;SDS011;11117;48.644;9.006;2024-02-15T09:48:02;5.70;;;2.37;;
21905;SDS011;11117;48.644;9.006;2024-02-15T09:50:31;4.20;;;2.47;;
21905;SDS011;11117;48.644;9.006;2024-02-15T09:52:59;6.77;;;2.73;;
21905;SDS011;11117;48.644;9.006;2024-02-15T09:55:25;5.60;;;2.47;;
21905;SDS011;11117;48.644;9.006;2024-02-15T09:57:51;5.20;;;2.40;;
21905;SDS011;11117;48.644;9.006;2024-02-15T10:00:16;3.50;;;2.00;;
21905;SDS011;11117;48.644;9.006;2024-02-15T10:02:43;7.90;;;2.25;;
21905;SDS011;11117;48.644;9.006;2024-02-15T10:05:10;3.70;;;2.13;;
21905;SDS011;11117;48.644;9.006;2024-02-15T10:07:36;7.47;;;2.40;;
21905;SDS011;11117;48.644;9.006;2024-02-15T10:12:44;4.73;;;1.77;;
21905;SDS011;11117;48.644;9.006;2024-02-15T10:15:09;2.90;;;1.60;;
21905;SDS011;11117;48.644;9.006;2024-02-15T10:17:35;3.47;;;1.55;;
21905;SDS011;11117;48.644;9.006;2024-02-15T10:20:04;5.80;;;1.80;;
21905;SDS011;11117;48.644;9.006;2024-02-15T10:22:30;2.45;;;1.60;;
21905;SDS011;11117;48.644;9.006;2024-02-15T10:25:12;3.20;;;1.48;;
21905;SDS011;11117;48.644;9.006;2024-02-15T10:27:39;8.43;;;1.50;;
21905;SDS011;11117;48.644;9.006;2024-02-15T10:30:14;6.63;;;1.20;;
21905;SDS011;11117;48.644;9.006;2024-02-15T10:32:41;5.68;;;1.58;;
21905;SDS011;11117;48.644;9.006;2024-02-15T10:35:07;4.18;;;1.10;;
21905;SDS011;11117;48.644;9.006;2024-02-15T10:37:33;2.33;;;0.93;;
21905;SDS011;11117;48.644;9.006;2024-02-15T10:40:05;3.88;;;1.33;;
21905;SDS011;11117;48.644;9.006;2024-02-15T10:42:31;1.85;;;1.00;;
21905;SDS011;11117;48.644;9.006;2024-02-15T10:44:58;2.75;;;1.00;;
21905;SDS011;11117;48.644;9.006;2024-02-15T10:47:24;3.78;;;1.25;;
21905;SDS011;11117;48.644;9.006;2024-02-15T10:49:50;2.83;;;0.93;;
21905;SDS011;11117;48.644;9.006;2024-02-15T10:52:16;1.45;;;0.73;;
21905;SDS011;11117;48.644;9.006;2024-02-15T10:54:50;2.45;;;1.10;;
21905;SDS011;11117;48.644;9.006;2024-02-15T10:57:21;4.18;;;1.45;;
21905;SDS011;11117;48.644;9.006;2024-02-15T10:59:57;4.53;;;0.85;;
21905;SDS011;11117;48.644;9.006;2024-02-15T11:02:27;2.53;;;1.05;;
21905;SDS011;11117;48.644;9.006;2024-02-15T11:05:02;3.65;;;0.90;;
21905;SDS011;11117;48.644;9.006;2024-02-15T11:07:32;2.67;;;1.10;;
21905;SDS011;11117;48.644;9.006;2024-02-15T11:09:57;4.75;;;0.80;;
21905;SDS011;11117;48.644;9.006;2024-02-15T11:12:24;2.88;;;0.90;;
21905;SDS011;11117;48.644;9.006;2024-02-15T11:14:50;2.85;;;0.70;;
21905;SDS011;11117;48.644;9.006;2024-02-15T11:20:03;3.00;;;0.80;;
21905;SDS011;11117;48.644;9.006;2024-02-15T11:22:29;1.77;;;0.60;;
21905;SDS011;11117;48.644;9.006;2024-02-15T11:24:55;1.73;;;0.70;;
21905;SDS011;11117;48.644;9.006;2024-02-15T11:27:24;1.38;;;0.65;;
21905;SDS011;11117;48.644;9.006;2024-02-15T11:29:54;2.50;;;0.65;;
21905;SDS011;11117;48.644;9.006;2024-02-15T11:35:20;2.30;;;0.70;;
21905;SDS011;11117;48.644;9.006;2024-02-15T11:37:50;3.63;;;0.98;;
21905;SDS011;11117;48.644;9.006;2024-02-15T11:40:25;2.40;;;0.65;;
21905;SDS011;11117;48.644;9.006;2024-02-15T11:42:55;2.10;;;0.95;;
21905;SDS011;11117;48.644;9.006;2024-02-15T11:45:21;2.40;;;0.85;;
21905;SDS011;11117;48.644;9.006;2024-02-15T11:47:48;5.80;;;0.70;;
21905;SDS011;11117;48.644;9.006;2024-02-15T11:50:14;3.40;;;0.90;;
21905;SDS011;11117;48.644;9.006;2024-02-15T11:52:41;3.10;;;0.70;;
21905;SDS011;11117;48.644;9.006;2024-02-15T11:55:07;1.05;;;0.60;;
21905;SDS011;11117;48.644;9.006;2024-02-15T11:57:33;3.75;;;0.82;;
21905;SDS011;11117;48.644;9.006;2024-02-15T11:59:58;3.60;;;0.98;;
21905;SDS011;11117;48.644;9.006;2024-02-15T12:02:24;3.35;;;0.90;;
21905;SDS011;11117;48.644;9.006;2024-02-15T12:04:51;1.92;;;0.80;;
21905;SDS011;11117;48.644;9.006;2024-02-15T12:07:16;5.90;;;0.90;;
21905;SDS011;11117;48.644;9.006;2024-02-15T12:09:42;2.40;;;1.02;;
21905;SDS011;11117;48.644;9.006;2024-02-15T12:12:11;1.63;;;0.90;;
21905;SDS011;11117;48.644;9.006;2024-02-15T12:14:36;1.95;;;0.93;;
21905;SDS011;11117;48.644;9.006;2024-02-15T12:17:06;2.80;;;0.88;;
21905;SDS011;11117;48.644;9.006;2024-02-15T12:19:33;1.45;;;0.90;;
21905;SDS011;11117;48.644;9.006;2024-02-15T12:21:58;2.20;;;1.00;;
21905;SDS011;11117;48.644;9.006;2024-02-15T12:24:24;2.35;;;1.20;;
21905;SDS011;11117;48.644;9.006;2024-02-15T12:26:50;2.00;;;1.20;;
21905;SDS011;11117;48.644;9.006;2024-02-15T12:29:16;1.92;;;1.00;;
21905;SDS011;11117;48.644;9.006;2024-02-15T12:31:43;2.63;;;1.00;;
21905;SDS011;11117;48.644;9.006;2024-02-15T12:34:09;1.70;;;1.00;;
21905;SDS011;11117;48.644;9.006;2024-02-15T12:36:34;2.80;;;1.00;;
21905;SDS011;11117;48.644;9.006;2024-02-15T12:39:04;3.83;;;1.42;;
21905;SDS011;11117;48.644;9.006;2024-02-15T12:41:30;4.35;;;1.35;;
21905;SDS011;11117;48.644;9.006;2024-02-15T12:43:56;3.10;;;1.17;;
21905;SDS011;11117;48.644;9.006;2024-02-15T12:46:21;3.15;;;0.95;;
21905;SDS011;11117;48.644;9.006;2024-02-15T12:48:47;1.50;;;0.90;;
21905;SDS011;11117;48.644;9.006;2024-02-15T12:51:13;2.00;;;1.10;;
21905;SDS011;11117;48.644;9.006;2024-02-15T12:53:40;2.97;;;0.98;;
21905;SDS011;11117;48.644;9.006;2024-02-15T12:56:06;3.80;;;1.00;;
21905;SDS011;11117;48.644;9.006;2024-02-15T12:58:32;1.83;;;0.90;;
21905;SDS011;11117;48.644;9.006;2024-02-15T13:01:01;3.67;;;1.00;;
21905;SDS011;11117;48.644;9.006;2024-02-15T13:03:27;2.38;;;1.00;;
21905;SDS011;11117;48.644;9.006;2024-02-15T13:05:53;3.03;;;1.05;;
21905;SDS011;11117;48.644;9.006;2024-02-15T13:08:18;2.55;;;0.82;;
21905;SDS011;11117;48.644;9.006;2024-02-15T13:10:44;2.08;;;1.00;;
21905;SDS011;11117;48.644;9.006;2024-02-15T13:13:10;3.38;;;1.00;;
21905;SDS011;11117;48.644;9.006;2024-02-15T13:15:35;3.78;;;0.90;;
21905;SDS011;11117;48.644;9.006;2024-02-15T13:18:01;2.30;;;0.88;;
21905;SDS011;11117;48.644;9.006;2024-02-15T13:20:28;6.93;;;1.10;;
21905;SDS011;11117;48.644;9.006;2024-02-15T13:22:53;3.92;;;1.00;;
21905;SDS011;11117;48.644;9.006;2024-02-15T13:25:19;3.13;;;1.00;;
21905;SDS011;11117;48.644;9.006;2024-02-15T13:27:44;3.33;;;1.15;;
21905;SDS011;11117;48.644;9.006;2024-02-15T13:30:10;3.00;;;1.00;;
21905;SDS011;11117;48.644;9.006;2024-02-15T13:32:36;2.58;;;1.20;;
21905;SDS011;11117;48.644;9.006;2024-02-15T13:35:02;2.58;;;1.10;;
21905;SDS011;11117;48.644;9.006;2024-02-15T13:37:29;3.47;;;1.20;;
21905;SDS011;11117;48.644;9.006;2024-02-15T13:39:54;2.40;;;1.25;;
21905;SDS011;11117;48.644;9.006;2024-02-15T13:42:20;3.03;;;1.50;;
21905;SDS011;11117;48.644;9.006;2024-02-15T13:44:46;5.25;;;1.45;;
21905;SDS011;11117;48.644;9.006;2024-02-15T13:47:11;2.45;;;1.35;;
21905;SDS011;11117;48.644;9.006;2024-02-15T13:49:37;3.22;;;1.63;;
21905;SDS011;11117;48.644;9.006;2024-02-15T13:52:04;2.28;;;1.45;;
21905;SDS011;11117;48.644;9.006;2024-02-15T13:54:30;2.60;;;1.33;;
21905;SDS011;11117;48.644;9.006;2024-02-15T13:56:56;2.63;;;1.60;;
21905;SDS011;11117;48.644;9.006;2024-02-15T13:59:22;3.20;;;1.33;;
21905;SDS011;11117;48.644;9.006;2024-02-15T14:01:47;1.77;;;1.08;;
21905;SDS011;11117;48.644;9.006;2024-02-15T14:04:13;1.65;;;1.25;;
21905;SDS011;11117;48.644;9.006;2024-02-15T14:06:38;2.28;;;1.17;;
21905;SDS011;11117;48.644;9.006;2024-02-15T14:09:04;2.45;;;1.40;;
21905;SDS011;11117;48.644;9.006;2024-02-15T14:11:29;2.67;;;1.52;;
21905;SDS011;11117;48.644;9.006;2024-02-15T14:13:55;2.90;;;1.48;;
21905;SDS011;11117;48.644;9.006;2024-02-15T14:16:21;5.35;;;1.27;;
21905;SDS011;11117;48.644;9.006;2024-02-15T14:18:46;5.03;;;2.25;;
21905;SDS011;11117;48.644;9.006;2024-02-15T14:21:12;4.15;;;2.03;;
21905;SDS011;11117;48.644;9.006;2024-02-15T14:23:37;2.60;;;1.10;;
21905;SDS011;11117;48.644;9.006;2024-02-15T14:26:03;2.13;;;1.20;;
21905;SDS011;11117;48.644;9.006;2024-02-15T14:28:29;2.67;;;1.30;;
21905;SDS011;11117;48.644;9.006;2024-02-15T14:30:54;2.20;;;1.35;;
21905;SDS011;11117;48.644;9.006;2024-02-15T14:33:20;2.72;;;1.30;;
21905;SDS011;11117;48.644;9.006;2024-02-15T14:35:45;4.03;;;1.00;;
21905;SDS011;11117;48.644;9.006;2024-02-15T14:38:12;3.47;;;1.40;;
21905;SDS011;11117;48.644;9.006;2024-02-15T14:40:38;4.20;;;1.10;;
21905;SDS011;11117;48.644;9.006;2024-02-15T14:43:05;2.40;;;1.10;;
21905;SDS011;11117;48.644;9.006;2024-02-15T14:45:32;4.82;;;1.15;;
21905;SDS011;11117;48.644;9.006;2024-02-15T14:47:58;2.40;;;1.00;;